Time;durP1;ratioP1;P1;durP2;ratioP2;P2;SDS_P1;SDS_P2;PMS_P1;PMS_P2;Temp;Humidity;BMP_temperature;BMP_pressure;BME280_temperature;BME280_humidity;BME280_pressure;Samples;Min_cycle;Max_cycle;Signal;HPM_P1;HPM_P2
2021/01/29 00:00:30;;;;;;;46.47;27.10;;;;;;;0.04;80.45;97256.69;2160235;82;21253;-77
2021/01/29 00:03:33;;;;;;;49.57;29.13;;;;;;;-0.02;80.52;97263.36;2160423;82;21166;-78
2021/01/29 00:06:34;;;;;;;43.17;24.80;;;;;;;-0.08;80.52;97257.19;2160490;82;21126;-78
2021/01/29 00:09:35;;;;;;;39.43;25.70;;;;;;;-0.11;79.96;97260.95;2160135;82;21245;-79
2021/01/29 00:12:36;;;;;;;38.80;20.87;;;;;;;-0.16;79.87;97262.10;2160269;82;21580;-78
2021/01/29 00:15:37;;;;;;;34.07;20.60;;;;;;;-0.19;79.02;97264.99;2161095;82;21253;-78
2021/01/29 00:18:38;;;;;;;32.77;18.63;;;;;;;-0.25;78.39;97255.44;2160892;82;21134;-80
2021/01/29 00:21:39;;;;;;;28.00;19.50;;;;;;;-0.28;78.26;97263.03;2161075;82;21265;-79
2021/01/29 00:24:40;;;;;;;30.63;18.30;;;;;;;-0.34;78.35;97253.89;2160504;82;21241;-79
2021/01/29 00:27:41;;;;;;;33.57;19.37;;;;;;;-0.38;78.63;97251.65;2160820;82;21265;-77
2021/01/29 00:30:43;;;;;;;28.67;18.03;;;;;;;-0.41;78.62;97257.97;2160592;82;21249;-78
2021/01/29 00:33:44;;;;;;;29.17;18.10;;;;;;;-0.47;78.60;97259.08;2160482;82;21241;-77
2021/01/29 00:36:45;;;;;;;28.80;17.70;;;;;;;-0.51;78.27;97260.22;2160384;82;21321;-80
2021/01/29 00:39:46;;;;;;;26.63;15.67;;;;;;;-0.57;78.26;97261.32;2160576;82;21286;-79
2021/01/29 00:42:47;;;;;;;21.67;13.00;;;;;;;-0.63;77.91;97254.32;2160555;82;21525;-79
2021/01/29 00:45:48;;;;;;;17.27;10.87;;;;;;;-0.70;75.95;97271.20;2160347;82;21265;-78
2021/01/29 00:52:08;;;;;;;14.13;9.67;;;;;;;-0.97;73.39;97275.45;2273907;77;23205;-80
2021/01/29 00:55:09;;;;;;;14.40;9.37;;;;;;;-1.14;74.08;97279.16;2270733;78;21154;-81
2021/01/29 00:58:10;;;;;;;14.47;9.80;;;;;;;-1.24;73.66;97275.44;2271290;78;21141;-79
2021/01/29 01:01:13;;;;;;;13.90;8.77;;;;;;;-1.35;73.77;97272.53;2270927;78;21140;-81
2021/01/29 01:04:14;;;;;;;13.40;9.60;;;;;;;-1.42;74.17;97273.55;2270516;78;21109;-81
2021/01/29 01:07:15;;;;;;;16.60;9.63;;;;;;;-1.51;73.91;97275.81;2269906;78;21410;-79
2021/01/29 01:10:16;;;;;;;15.23;9.57;;;;;;;-1.60;74.02;97278.93;2269909;78;21288;-81
2021/01/29 01:13:17;;;;;;;12.17;9.10;;;;;;;-1.68;74.44;97277.80;2270103;78;21271;-82
2021/01/29 01:16:18;;;;;;;14.73;10.43;;;;;;;-1.75;74.95;97283.48;2270386;78;21243;-83
2021/01/29 01:19:19;;;;;;;16.27;10.00;;;;;;;-1.80;75.17;97289.73;2271122;78;21113;-81
2021/01/29 01:22:20;;;;;;;15.60;10.67;;;;;;;-1.87;75.36;97284.34;2269975;78;21126;-80
2021/01/29 01:25:21;;;;;;;16.13;10.37;;;;;;;-1.92;75.58;97285.46;2270873;78;21280;-80
2021/01/29 01:28:23;;;;;;;19.00;11.43;;;;;;;-1.97;75.76;97292.97;2270814;78;21237;-79
2021/01/29 01:31:24;;;;;;;14.83;9.87;;;;;;;-2.00;75.89;97294.14;2270916;78;21279;-81
2021/01/29 01:34:25;;;;;;;12.93;9.50;;;;;;;-2.05;75.75;97290.96;2270508;78;21264;-81
2021/01/29 01:37:26;;;;;;;14.60;9.43;;;;;;;-2.15;75.42;97303.81;2270184;78;21137;-79
2021/01/29 01:40:27;;;;;;;157.47;91.90;;;;;;;-2.24;75.25;97299.65;2270364;78;21311;-82
2021/01/29 01:43:28;;;;;;;13.93;9.37;;;;;;;0.37;87.04;97297.38;2270377;78;21117;-82
2021/01/29 01:46:29;;;;;;;16.47;9.83;;;;;;;0.42;73.39;97298.36;2270375;78;21133;-81
2021/01/29 01:49:30;;;;;;;15.20;10.00;;;;;;;-0.34;71.77;97305.16;2270159;78;21586;-81
2021/01/29 01:52:31;;;;;;;14.07;9.63;;;;;;;-0.97;72.02;97304.91;2267700;78;21248;-81
2021/01/29 01:55:35;;;;;;;20.20;10.40;;;;;;;-1.39;72.48;97314.20;2267817;78;21259;-79
2021/01/29 01:58:36;;;;;;;18.27;10.40;;;;;;;-1.70;72.90;97311.41;2268029;78;21129;-80
2021/01/29 02:01:38;;;;;;;20.17;11.37;;;;;;;-1.99;73.21;97312.91;2267668;78;21121;-80
2021/01/29 02:04:39;;;;;;;18.17;10.87;;;;;;;-2.20;73.69;97322.36;2266674;79;21165;-82
2021/01/29 02:07:40;;;;;;;24.40;11.13;;;;;;;-2.38;74.07;97324.70;2267178;79;21391;-80
2021/01/29 02:10:41;;;;;;;21.10;11.27;;;;;;;-2.50;74.22;97332.30;2267039;79;21185;-80
2021/01/29 02:13:42;;;;;;;17.93;11.43;;;;;;;-2.63;74.43;97325.82;2267300;79;21122;-82
2021/01/29 02:16:43;;;;;;;22.77;13.17;;;;;;;-2.78;74.54;97320.99;2266984;79;21125;-81
2021/01/29 02:19:45;;;;;;;22.57;13.37;;;;;;;-2.87;74.78;97328.30;2267178;79;21117;-80
2021/01/29 02:22:47;;;;;;;22.73;12.30;;;;;;;-2.96;74.88;97324.10;2267257;79;21149;-82
2021/01/29 02:25:48;;;;;;;26.77;15.47;;;;;;;-3.03;75.00;97324.67;2267387;79;21122;-81
2021/01/29 02:28:49;;;;;;;23.57;15.33;;;;;;;-3.13;75.34;97326.39;2267171;79;21435;-79
2021/01/29 02:31:50;;;;;;;26.73;15.73;;;;;;;-3.18;75.23;97318.55;2266595;79;21164;-81
2021/01/29 02:34:51;;;;;;;27.47;14.77;;;;;;;-3.23;75.44;97314.53;2266407;79;21145;-81
2021/01/29 02:37:52;;;;;;;59.23;32.60;;;;;;;-3.26;75.57;97311.85;2267457;79;21098;-83
2021/01/29 02:40:53;;;;;;;58.83;30.73;;;;;;;-0.01;89.68;97301.01;2268085;79;21125;-80
2021/01/29 02:43:54;;;;;;;28.47;15.33;;;;;;;4.82;91.09;97286.71;2266637;79;21589;-81
2021/01/29 02:46:55;;;;;;;30.03;16.30;;;;;;;3.15;69.02;97282.38;2266343;79;21407;-81
2021/01/29 02:49:57;;;;;;;30.10;15.70;;;;;;;1.01;67.50;97295.60;2266211;79;21538;-81
2021/01/29 02:52:58;;;;;;;27.37;15.00;;;;;;;-0.29;68.80;97304.89;2266334;79;21360;-82
2021/01/29 02:55:59;;;;;;;26.47;15.27;;;;;;;-1.03;69.78;97309.83;2266345;79;21086;-80
2021/01/29 02:59:00;;;;;;;27.57;16.17;;;;;;;-1.62;70.87;97309.58;2266012;79;21152;-81
2021/01/29 03:02:01;;;;;;;24.27;14.97;;;;;;;-1.99;71.88;97311.63;2266620;79;21137;-82
2021/01/29 03:05:02;;;;;;;27.40;15.80;;;;;;;-2.29;72.55;97311.39;2265764;79;21105;-78
2021/01/29 03:08:03;;;;;;;24.20;15.03;;;;;;;-2.51;73.34;97326.73;2265527;79;21086;-81
2021/01/29 03:11:04;;;;;;;27.87;15.47;;;;;;;-2.66;73.73;97325.30;2266385;79;21442;-80
2021/01/29 03:14:06;;;;;;;27.23;15.90;;;;;;;-2.76;74.14;97324.48;2266504;78;21094;-83
2021/01/29 03:17:07;;;;;;;30.90;16.47;;;;;;;-2.84;74.42;97323.31;2266545;79;21145;-81
2021/01/29 03:20:08;;;;;;;29.63;15.50;;;;;;;-2.91;74.49;97324.75;2266180;79;21137;-80
2021/01/29 03:23:09;;;;;;;33.13;18.13;;;;;;;-2.95;74.58;97328.40;2265829;79;21113;-81
2021/01/29 03:26:10;;;;;;;32.67;17.13;;;;;;;-3.02;74.84;97328.56;2266364;79;21779;-80
2021/01/29 03:29:11;;;;;;;37.93;19.27;;;;;;;-3.07;75.03;97333.02;2265978;79;21141;-79
2021/01/29 03:32:12;;;;;;;32.90;16.27;;;;;;;-3.13;75.28;97332.36;2265633;79;21137;-81
2021/01/29 03:35:14;;;;;;;36.03;18.30;;;;;;;-3.16;75.38;97340.30;2265679;79;21118;-78
2021/01/29 03:38:15;;;;;;;40.13;18.43;;;;;;;-3.24;75.96;97340.86;2266555;79;21125;-80
2021/01/29 03:41:16;;;;;;;32.57;17.60;;;;;;;-3.30;75.99;97341.88;2266663;79;21423;-80
2021/01/29 03:44:17;;;;;;;94.00;49.30;;;;;;;-3.34;76.10;97340.42;2266532;79;21113;-80
2021/01/29 03:47:18;;;;;;;48.70;22.43;;;;;;;-0.95;89.04;97326.31;2266207;79;21133;-79
2021/01/29 03:50:19;;;;;;;51.73;22.57;;;;;;;2.46;82.16;97322.38;2265133;79;21145;-81
2021/01/29 03:53:20;;;;;;;44.27;19.30;;;;;;;0.96;68.49;97327.60;2259408;79;21114;-80
2021/01/29 03:56:21;;;;;;;43.10;17.83;;;;;;;-0.49;69.41;97321.38;2259131;79;21395;-78
2021/01/29 03:59:22;;;;;;;32.93;15.10;;;;;;;-1.36;70.02;97326.23;2259166;79;21157;-80
2021/01/29 04:02:23;;;;;;;30.00;16.57;;;;;;;-1.95;71.29;97333.94;2258902;79;21109;-78
2021/01/29 04:05:24;;;;;;;28.47;13.93;;;;;;;-2.33;72.10;97329.98;2258021;79;21526;-78
2021/01/29 04:08:25;;;;;;;26.87;15.53;;;;;;;-2.61;72.84;97339.12;2258641;79;21517;-77
2021/01/29 04:11:26;;;;;;;30.93;14.60;;;;;;;-2.79;73.32;97332.42;2258645;79;21439;-77
2021/01/29 04:14:27;;;;;;;31.73;16.53;;;;;;;-2.93;73.72;97331.88;2258826;79;21137;-76
2021/01/29 04:17:28;;;;;;;36.50;16.97;;;;;;;-3.11;74.02;97346.05;2259232;79;21098;-78
2021/01/29 04:20:30;;;;;;;44.47;18.27;;;;;;;-3.18;74.32;97339.36;2258704;79;21471;-78
2021/01/29 04:23:31;;;;;;;42.03;19.40;;;;;;;-3.26;74.56;97348.86;2258374;79;21110;-76
2021/01/29 04:26:32;;;;;;;42.40;18.37;;;;;;;-3.29;74.74;97341.48;2259026;79;21125;-78
2021/01/29 04:29:33;;;;;;;41.70;16.43;;;;;;;-3.33;74.88;97343.03;2258406;79;21165;-78
2021/01/29 04:32:34;;;;;;;39.03;15.50;;;;;;;-3.38;74.97;97347.08;2258847;79;21229;-79
2021/01/29 04:35:35;;;;;;;44.17;18.07;;;;;;;-3.45;75.06;97351.45;2258243;79;21137;-77
2021/01/29 04:38:36;;;;;;;43.20;17.87;;;;;;;-3.50;75.15;97359.28;2258195;79;21153;-78
2021/01/29 04:41:37;;;;;;;38.53;18.37;;;;;;;-3.56;75.06;97358.62;2257264;79;21462;-77
2021/01/29 04:44:38;;;;;;;49.10;20.83;;;;;;;-3.58;75.38;97365.73;2256974;79;21097;-76
2021/01/29 04:47:39;;;;;;;49.53;21.13;;;;;;;-3.63;75.56;97362.98;2256352;79;21256;-77
2021/01/29 04:50:40;;;;;;;43.20;19.17;;;;;;;-3.65;75.47;97365.00;2256100;79;21859;-77
2021/01/29 04:53:41;;;;;;;40.57;18.40;;;;;;;-3.69;75.49;97370.38;2256688;79;21101;-77
2021/01/29 04:56:43;;;;;;;32.07;16.13;;;;;;;-3.72;75.67;97362.59;2255600;79;21252;-78
2021/01/29 04:59:45;;;;;;;36.80;16.70;;;;;;;-3.75;75.69;97360.31;2256460;79;21276;-78
2021/01/29 05:02:46;;;;;;;43.10;18.90;;;;;;;-3.79;76.30;97360.59;2256629;79;21773;-78
2021/01/29 05:05:47;;;;;;;46.83;18.70;;;;;;;-3.83;76.26;97367.62;2255734;79;21260;-77
2021/01/29 05:08:48;;;;;;;53.90;19.77;;;;;;;-3.83;76.11;97364.21;2255932;79;21749;-78
2021/01/29 05:11:49;;;;;;;57.83;23.47;;;;;;;-3.82;76.46;97364.68;2256953;79;21287;-77
2021/01/29 05:14:51;;;;;;;56.87;23.83;;;;;;;-3.78;76.41;97367.43;2255987;79;21290;-77
2021/01/29 05:17:52;;;;;;;48.47;21.03;;;;;;;-3.71;76.34;97372.39;2256424;79;21241;-79
2021/01/29 05:20:56;;;;;;;48.40;19.37;;;;;;;-3.62;76.55;97380.44;2256494;79;21275;-77
2021/01/29 05:23:56;;;;;;;41.77;15.23;;;;;;;-3.56;76.30;97369.22;2255762;79;21236;-76
2021/01/29 05:26:57;;;;;;;32.93;14.00;;;;;;;-3.46;76.36;97372.66;2256873;79;21105;-77
2021/01/29 05:29:58;;;;;;;31.17;12.37;;;;;;;-3.38;76.31;97367.89;2256433;79;21133;-78
2021/01/29 05:32:59;;;;;;;28.50;10.97;;;;;;;-3.29;76.13;97369.14;2256111;79;21216;-80
2021/01/29 05:36:00;;;;;;;34.13;17.13;;;;;;;-3.21;76.03;97365.23;2256588;79;21247;-79
2021/01/29 05:39:01;;;;;;;36.03;16.80;;;;;;;-3.15;75.83;97366.28;2257464;79;21203;-78
2021/01/29 05:42:02;;;;;;;39.30;15.13;;;;;;;-3.10;75.82;97369.50;2257665;79;21153;-78
2021/01/29 05:45:03;;;;;;;29.63;13.87;;;;;;;-3.04;75.78;97373.58;2257229;79;21240;-77
2021/01/29 05:48:05;;;;;;;32.07;14.43;;;;;;;-3.02;75.64;97372.36;2256627;79;21267;-77
2021/01/29 05:51:06;;;;;;;40.80;16.20;;;;;;;-3.02;75.67;97363.02;2257154;79;21562;-76
2021/01/29 05:54:07;;;;;;;35.00;15.90;;;;;;;-2.98;75.65;97366.17;2256679;79;21224;-74
2021/01/29 05:57:08;;;;;;;33.07;14.20;;;;;;;-2.94;75.76;97362.92;2256076;79;21121;-76
2021/01/29 06:00:09;;;;;;;32.00;13.80;;;;;;;-2.90;75.49;97360.09;2255919;79;21195;-77
2021/01/29 06:03:10;;;;;;;31.27;14.03;;;;;;;-2.89;75.26;97361.83;2255161;79;21118;-76
2021/01/29 06:06:11;;;;;;;30.97;13.77;;;;;;;-2.90;75.33;97354.98;2255651;79;21239;-76
2021/01/29 06:09:12;;;;;;;38.20;14.13;;;;;;;-2.85;75.36;97361.55;2254574;79;21283;-75
2021/01/29 06:12:13;;;;;;;29.27;13.83;;;;;;;-2.85;75.04;97359.87;2256166;79;21606;-76
2021/01/29 06:15:14;;;;;;;25.23;12.17;;;;;;;-2.88;74.98;97357.19;2255923;79;21264;-76
2021/01/29 06:18:15;;;;;;;26.50;12.37;;;;;;;-2.86;75.11;97353.42;2256170;79;21240;-76
2021/01/29 06:21:16;;;;;;;26.70;12.53;;;;;;;-2.82;74.93;97353.61;2256720;79;21118;-75
2021/01/29 06:24:17;;;;;;;27.67;12.97;;;;;;;-2.82;74.96;97359.12;2255602;79;21252;-76
2021/01/29 06:27:18;;;;;;;32.10;13.60;;;;;;;-2.79;75.04;97351.17;2256583;79;21244;-76
2021/01/29 06:30:20;;;;;;;28.70;14.20;;;;;;;-2.77;74.54;97351.23;2255757;79;21843;-76
2021/01/29 06:33:21;;;;;;;38.10;18.83;;;;;;;-2.77;74.65;97349.95;2255719;79;21118;-77
2021/01/29 06:36:22;;;;;;;54.80;23.97;;;;;;;-2.74;74.38;97352.63;2255802;79;21267;-76
2021/01/29 06:39:23;;;;;;;67.27;26.40;;;;;;;-2.79;74.48;97356.69;2255746;79;21106;-76
2021/01/29 06:42:24;;;;;;;59.70;23.87;;;;;;;-2.76;74.45;97354.25;2256428;79;21228;-76
2021/01/29 06:45:25;;;;;;;43.20;17.80;;;;;;;-2.74;74.50;97355.19;2255537;79;21569;-76
2021/01/29 06:48:26;;;;;;;32.80;14.60;;;;;;;-2.71;74.58;97347.23;2256403;79;21648;-76
2021/01/29 06:51:27;;;;;;;37.80;17.07;;;;;;;-2.69;74.48;97347.30;2257804;79;21166;-76
2021/01/29 06:54:28;;;;;;;31.47;14.60;;;;;;;-2.69;74.42;97339.63;2260138;79;21270;-76
2021/01/29 06:57:30;;;;;;;41.80;17.67;;;;;;;;;;2260804;79;21539;-76
2021/01/29 07:00:30;;;;;;;34.03;15.77;;;;;;;-2.60;74.43;97334.91;2260480;79;21106;-77
2021/01/29 07:03:31;;;;;;;43.10;17.80;;;;;;;-2.58;74.22;97344.38;2259280;79;21094;-76
2021/01/29 07:06:33;;;;;;;51.07;21.80;;;;;;;-2.55;74.03;97356.80;2260404;79;21249;-76
2021/01/29 07:09:34;;;;;;;49.93;22.33;;;;;;;-2.51;74.35;97357.39;2260570;79;21264;-77
2021/01/29 07:12:36;;;;;;;46.27;20.70;;;;;;;-2.45;73.96;97349.95;2260827;79;21121;-76
2021/01/29 07:15:37;;;;;;;33.03;14.83;;;;;;;-2.45;73.98;97352.52;2260681;79;21420;-76
2021/01/29 07:18:38;;;;;;;36.73;15.93;;;;;;;-2.47;73.53;97357.97;2260386;79;21259;-76
2021/01/29 07:21:39;;;;;;;28.33;15.13;;;;;;;-2.47;73.79;97354.14;2260679;79;21105;-76
2021/01/29 07:24:41;;;;;;;30.63;12.63;;;;;;;-2.44;73.81;97360.65;2259948;79;21288;-76
2021/01/29 07:27:42;;;;;;;25.03;12.60;;;;;;;-2.46;73.11;97358.44;2260594;79;21244;-76
2021/01/29 07:30:43;;;;;;;24.23;13.20;;;;;;;-2.45;73.47;97357.22;2261227;79;21284;-76
2021/01/29 07:33:44;;;;;;;26.37;12.37;;;;;;;-2.44;73.45;97354.26;2260657;79;21558;-76
2021/01/29 07:36:45;;;;;;;21.67;11.43;;;;;;;-2.32;73.14;97351.77;2261361;79;21663;-77
2021/01/29 07:39:46;;;;;;;25.77;13.17;;;;;;;-2.38;72.63;97352.80;2261151;79;21228;-76
2021/01/29 07:42:47;;;;;;;29.87;13.70;;;;;;;-2.37;73.08;97357.52;2260556;79;21840;-76
2021/01/29 07:45:49;;;;;;;39.93;17.80;;;;;;;-2.35;72.88;97353.33;2259839;79;21276;-76
2021/01/29 07:48:50;;;;;;;47.57;21.17;;;;;;;-2.30;72.87;97353.09;2260555;79;21244;-77
2021/01/29 07:51:51;;;;;;;42.43;18.63;;;;;;;-2.26;72.57;97340.48;2258715;79;21268;-76
2021/01/29 07:54:52;;;;;;;38.87;15.87;;;;;;;-2.18;72.49;97330.55;2255858;79;21598;-76
2021/01/29 07:57:53;;;;;;;28.13;13.07;;;;;;;-2.09;72.25;97328.33;2256328;79;21267;-76
2021/01/29 08:00:54;;;;;;;35.50;16.90;;;;;;;-1.95;72.03;97319.47;2256216;79;21564;-76
2021/01/29 08:03:55;;;;;;;43.23;17.73;;;;;;;-1.86;70.84;97323.17;2256500;79;21837;-76
2021/01/29 08:06:57;;;;;;;48.03;18.93;;;;;;;-1.81;71.27;97313.97;2255529;79;21251;-77
2021/01/29 08:09:58;;;;;;;44.77;17.00;;;;;;;-1.70;71.19;97299.49;2256369;79;21311;-76
2021/01/29 08:12:59;;;;;;;44.90;17.70;;;;;;;-1.53;70.75;97296.23;2255106;79;21860;-76
2021/01/29 08:16:00;;;;;;;48.90;18.47;;;;;;;-1.41;70.38;97295.77;2255321;79;21883;-76
2021/01/29 08:19:01;;;;;;;46.07;18.47;;;;;;;-1.36;70.36;97292.55;2256369;79;21268;-76
2021/01/29 08:22:02;;;;;;;52.60;20.73;;;;;;;-1.20;70.75;97287.52;2255618;79;21118;-76
2021/01/29 08:25:03;;;;;;;24.57;12.73;;;;;;;-1.07;69.32;97281.09;2256025;79;22037;-77
2021/01/29 08:28:05;;;;;;;24.17;12.10;;;;;;;-1.21;69.17;97282.34;2256578;79;21598;-77
2021/01/29 08:31:06;;;;;;;30.03;13.17;;;;;;;-1.34;68.65;97280.67;2256060;79;21296;-76
2021/01/29 08:34:07;;;;;;;38.07;16.30;;;;;;;-1.32;68.21;97272.63;2256169;79;21256;-76
2021/01/29 08:37:08;;;;;;;41.50;17.63;;;;;;;-1.36;68.46;97269.51;2256152;79;21469;-76
2021/01/29 08:40:09;;;;;;;39.13;18.30;;;;;;;-1.42;68.18;97268.03;2256497;79;21581;-77
2021/01/29 08:43:10;;;;;;;39.00;18.00;;;;;;;-1.44;68.13;97257.28;2256101;79;21094;-77
2021/01/29 08:46:11;;;;;;;32.07;15.17;;;;;;;-1.45;68.79;97261.94;2256455;79;21125;-76
2021/01/29 08:49:12;;;;;;;38.97;17.40;;;;;;;-1.43;68.94;97254.77;2257169;79;21256;-77
2021/01/29 08:52:13;;;;;;;48.53;20.27;;;;;;;-1.26;69.17;97249.33;2255526;79;21110;-77
2021/01/29 08:55:14;;;;;;;30.33;15.33;;;;;;;-1.14;68.18;97245.88;2256047;79;21154;-77
2021/01/29 08:58:16;;;;;;;24.83;12.37;;;;;;;-1.18;68.12;97245.32;2256065;79;21126;-77
2021/01/29 09:01:17;;;;;;;26.30;12.63;;;;;;;-1.25;67.87;97254.50;2255070;79;21244;-78
2021/01/29 09:04:18;;;;;;;23.80;11.33;;;;;;;-1.31;67.86;97244.06;2253817;79;21094;-76
2021/01/29 09:07:19;;;;;;;25.10;11.63;;;;;;;-1.19;67.64;97252.13;2254749;79;21133;-75
2021/01/29 09:10:20;;;;;;;26.00;12.97;;;;;;;-1.17;67.72;97240.25;2255476;79;21303;-78
2021/01/29 09:13:21;;;;;;;31.17;13.37;;;;;;;-1.14;67.72;97246.75;2256290;79;21229;-77
2021/01/29 09:16:22;;;;;;;16.27;7.83;;;;;;;-1.08;67.14;97241.81;2255232;79;21558;-77
2021/01/29 09:19:23;;;;;;;18.70;9.63;;;;;;;-1.11;66.43;97244.69;2255821;79;21248;-77
2021/01/29 09:22:25;;;;;;;17.93;11.23;;;;;;;-1.10;66.01;97246.02;2255312;78;21526;-77
2021/01/29 09:25:26;;;;;;;15.60;8.37;;;;;;;-1.08;66.41;97245.66;2255790;79;21243;-77
2021/01/29 09:28:27;;;;;;;14.33;8.73;;;;;;;-1.11;66.00;97245.97;2255512;78;21241;-76
2021/01/29 09:31:28;;;;;;;18.03;9.00;;;;;;;-1.13;64.83;97248.90;2255288;79;21110;-77
2021/01/29 09:34:29;;;;;;;20.20;10.93;;;;;;;-1.08;65.56;97249.50;2254201;79;21717;-77
2021/01/29 09:37:33;;;;;;;21.27;11.50;;;;;;;-0.96;66.13;97240.91;2256289;79;21263;-78
2021/01/29 09:40:33;;;;;;;22.47;11.93;;;;;;;-0.86;65.48;97246.36;2256556;79;21254;-76
2021/01/29 09:43:35;;;;;;;25.73;12.30;;;;;;;-0.80;65.64;97241.41;2255562;79;21239;-76
2021/01/29 09:46:36;;;;;;;14.77;7.90;;;;;;;-0.77;64.49;97245.35;2255860;79;21236;-77
2021/01/29 09:49:37;;;;;;;16.47;8.53;;;;;;;-0.86;63.54;97246.36;2255972;79;21241;-77
2021/01/29 09:52:39;;;;;;;17.73;8.20;;;;;;;-0.97;63.52;97249.83;2256411;79;21244;-78
2021/01/29 09:55:40;;;;;;;18.53;9.83;;;;;;;-0.99;64.16;97245.94;2255726;79;21243;-77
2021/01/29 09:58:41;;;;;;;22.90;10.53;;;;;;;-0.97;64.70;97245.58;2256342;79;21239;-77
2021/01/29 10:01:42;;;;;;;25.80;9.67;;;;;;;-0.89;63.64;97250.07;2255421;79;21101;-76
2021/01/29 10:04:43;;;;;;;21.10;10.00;;;;;;;-0.97;63.84;97251.98;2254915;79;21260;-77
2021/01/29 10:07:44;;;;;;;19.17;9.47;;;;;;;-0.92;64.57;97253.41;2256104;79;21279;-78
2021/01/29 10:10:45;;;;;;;22.27;10.47;;;;;;;-0.88;64.88;97250.12;2255984;78;21845;-76
2021/01/29 10:13:47;;;;;;;18.33;10.50;;;;;;;-0.80;64.66;97252.95;2256562;79;21531;-77
2021/01/29 10:16:48;;;;;;;23.70;11.47;;;;;;;-0.74;65.23;97246.73;2256129;79;21284;-77
2021/01/29 10:19:49;;;;;;;25.47;11.67;;;;;;;-0.59;65.64;97245.03;2256725;79;21256;-77
2021/01/29 10:22:54;;;;;;;22.93;12.57;;;;;;;-0.53;64.35;97241.37;2256755;79;21561;-76
2021/01/29 10:25:53;;;;;;;38.10;19.33;;;;;;;-0.54;64.70;97247.31;2255120;79;21251;-77
2021/01/29 10:28:54;;;;;;;25.00;13.80;;;;;;;-0.30;64.06;97247.16;2256194;79;21239;-77
2021/01/29 10:31:55;;;;;;;22.13;11.50;;;;;;;-0.11;63.50;97240.02;2256012;79;21542;-77
2021/01/29 10:34:57;;;;;;;22.33;11.80;;;;;;;0.24;63.06;97243.98;2255981;79;21256;-76
2021/01/29 10:37:59;;;;;;;17.70;8.57;;;;;;;0.36;60.77;97238.30;2255550;79;21264;-77
2021/01/29 10:41:00;;;;;;;18.63;10.73;;;;;;;0.68;60.98;97232.69;2256033;79;21098;-76
2021/01/29 10:44:01;;;;;;;20.83;9.37;;;;;;;1.11;61.19;97224.31;2255131;79;21082;-76
2021/01/29 10:47:02;;;;;;;25.13;11.80;;;;;;;1.22;58.77;97217.30;2256213;79;21248;-77
2021/01/29 10:50:05;;;;;;;24.43;11.13;;;;;;;0.97;59.54;97223.13;2256291;79;21292;-77
2021/01/29 10:53:06;;;;;;;30.17;13.23;;;;;;;0.62;59.38;97223.12;2256212;79;21240;-76
2021/01/29 10:56:10;;;;;;;29.43;13.90;;;;;;;0.43;61.27;97215.39;2256313;79;21804;-77
2021/01/29 10:59:11;;;;;;;23.83;11.13;;;;;;;0.37;59.23;97204.97;2256263;79;21252;-76
2021/01/29 11:02:13;;;;;;;15.27;9.20;;;;;;;0.35;60.31;97207.05;2257155;79;21546;-78
2021/01/29 11:05:14;;;;;;;28.80;13.40;;;;;;;0.31;60.37;97198.39;2255144;78;21244;-75
2021/01/29 11:08:15;;;;;;;32.67;14.53;;;;;;;0.22;60.75;97196.46;2256724;79;21248;-76
2021/01/29 11:11:16;;;;;;;20.43;10.10;;;;;;;0.13;59.55;97196.23;2256304;79;21244;-77
2021/01/29 11:14:17;;;;;;;32.53;14.13;;;;;;;0.02;58.72;97196.36;2255380;79;21118;-77
2021/01/29 11:17:20;;;;;;;17.83;9.23;;;;;;;-0.19;60.02;97197.03;2256446;79;21229;-77
2021/01/29 11:20:21;;;;;;;18.33;9.27;;;;;;;-0.30;60.19;97191.62;2256769;79;21264;-77
2021/01/29 11:23:22;;;;;;;20.53;9.97;;;;;;;-0.43;61.44;97184.41;2256510;79;21224;-77
2021/01/29 11:26:23;;;;;;;20.50;10.30;;;;;;;-0.52;60.69;97182.46;2256252;78;21244;-77
2021/01/29 11:29:26;;;;;;;37.70;15.93;;;;;;;-0.53;61.72;97184.98;2256540;79;21240;-76
2021/01/29 11:32:27;;;;;;;24.23;11.50;;;;;;;-0.41;61.96;97185.33;2255315;79;21862;-76
2021/01/29 11:35:28;;;;;;;23.70;10.60;;;;;;;-0.36;62.14;97177.34;2254918;79;21129;-76
2021/01/29 11:38:29;;;;;;;25.57;11.80;;;;;;;-0.30;61.11;97175.36;2255854;79;21244;-77
2021/01/29 11:41:30;;;;;;;28.87;13.83;;;;;;;-0.24;62.19;97170.41;2255992;79;21233;-77
2021/01/29 11:44:32;;;;;;;17.47;10.93;;;;;;;-0.14;62.16;97160.84;2256942;79;21244;-78
2021/01/29 11:47:33;;;;;;;19.07;10.90;;;;;;;-0.07;61.93;97162.74;2255767;79;21256;-77
2021/01/29 11:50:34;;;;;;;20.63;10.90;;;;;;;-0.10;61.98;97163.53;2255841;79;21165;-78
2021/01/29 11:53:35;;;;;;;21.10;11.10;;;;;;;-0.11;62.04;97156.66;2255504;79;21287;-77
2021/01/29 11:56:36;;;;;;;27.27;14.80;;;;;;;-0.05;62.32;97152.97;2256173;79;21252;-77
2021/01/29 11:59:37;;;;;;;22.57;11.43;;;;;;;-0.05;61.07;97154.67;2256393;79;21228;-77
2021/01/29 12:02:40;;;;;;;23.70;12.77;;;;;;;-0.17;59.97;97153.94;2255727;79;21107;-77
2021/01/29 12:05:41;;;;;;;19.23;11.83;;;;;;;-0.21;61.16;97150.84;2255911;79;21566;-76
2021/01/29 12:08:42;;;;;;;24.23;12.23;;;;;;;-0.18;62.07;97153.48;2256532;79;21930;-77
2021/01/29 12:11:43;;;;;;;23.37;12.53;;;;;;;-0.11;61.76;97150.25;2255999;79;21268;-77
2021/01/29 12:14:44;;;;;;;27.30;16.07;;;;;;;-0.24;61.47;97145.63;2255783;79;21251;-76
2021/01/29 12:17:45;;;;;;;23.50;11.33;;;;;;;-0.27;62.04;97137.86;2255990;79;21248;-77
2021/01/29 12:20:46;;;;;;;25.80;12.63;;;;;;;-0.38;61.68;97143.98;2255594;79;21256;-76
2021/01/29 12:23:47;;;;;;;27.43;13.93;;;;;;;-0.44;62.24;97136.13;2256041;79;21232;-77
2021/01/29 12:26:49;;;;;;;37.70;16.50;;;;;;;-0.44;62.11;97130.99;2255781;79;21244;-77
2021/01/29 12:29:50;;;;;;;31.80;15.03;;;;;;;-0.41;62.47;97127.64;2256356;79;21288;-77
2021/01/29 12:32:51;;;;;;;24.97;12.30;;;;;;;-0.38;62.62;97116.19;2256642;79;21220;-77
2021/01/29 12:35:52;;;;;;;32.63;14.60;;;;;;;-0.28;62.90;97109.61;2255260;79;21244;-77
2021/01/29 12:38:53;;;;;;;30.10;16.40;;;;;;;-0.23;62.51;97109.31;2256887;79;21129;-77
2021/01/29 12:41:54;;;;;;;26.30;12.90;;;;;;;-0.18;62.50;97112.45;2256446;79;21221;-77
2021/01/29 12:44:55;;;;;;;27.27;15.40;;;;;;;-0.01;62.83;97107.34;2256657;79;21291;-77
2021/01/29 12:47:56;;;;;;;27.50;15.10;;;;;;;0.19;61.92;97098.01;2257146;79;21260;-77
2021/01/29 12:50:58;;;;;;;28.57;14.93;;;;;;;0.31;61.59;97088.04;2256046;79;21929;-77
2021/01/29 12:53:59;;;;;;;23.23;12.90;;;;;;;0.38;61.02;97086.48;2255581;79;21260;-77
2021/01/29 12:57:00;;;;;;;20.87;11.83;;;;;;;0.48;61.06;97086.73;2255325;79;21236;-77
2021/01/29 13:00:02;;;;;;;25.67;12.63;;;;;;;0.66;60.85;97080.27;2255332;79;21248;-76
2021/01/29 13:03:03;;;;;;;21.30;11.93;;;;;;;0.79;60.69;97076.72;2254824;79;21241;-77
2021/01/29 13:06:04;;;;;;;25.67;13.50;;;;;;;0.98;60.72;97073.29;2253782;79;21244;-78
2021/01/29 13:09:05;;;;;;;18.90;10.63;;;;;;;1.18;60.33;97069.42;2254253;79;21244;-77
2021/01/29 13:12:06;;;;;;;20.73;11.40;;;;;;;1.33;59.46;97068.85;2255103;79;21276;-77
2021/01/29 13:15:07;;;;;;;21.47;11.73;;;;;;;1.30;59.70;97063.66;2256930;79;21590;-77
2021/01/29 13:18:14;;;;;;;20.70;12.33;;;;;;;1.38;59.71;97071.09;2258135;79;21525;-77
2021/01/29 13:21:13;;;;;;;27.53;14.30;;;;;;;1.41;59.36;97068.58;2258802;79;21608;-77
2021/01/29 13:24:15;;;;;;;26.80;14.50;;;;;;;1.34;58.78;97070.17;2257883;79;21244;-77
2021/01/29 13:27:16;;;;;;;23.17;14.03;;;;;;;1.25;59.50;97067.42;2257824;79;21145;-76
2021/01/29 13:30:18;;;;;;;22.13;13.83;;;;;;;1.20;59.26;97063.47;2257697;79;21280;-77
2021/01/29 13:33:19;;;;;;;28.53;14.60;;;;;;;1.13;59.73;97064.61;2257010;79;21291;-77
2021/01/29 13:36:20;;;;;;;27.50;16.83;;;;;;;1.12;59.82;97054.75;2257668;79;21240;-77
2021/01/29 13:39:21;;;;;;;28.50;14.80;;;;;;;1.09;59.63;97056.39;2257282;79;21271;-78
2021/01/29 13:42:22;;;;;;;25.67;14.37;;;;;;;1.06;59.72;97048.62;2257356;79;21129;-77
2021/01/29 13:45:23;;;;;;;24.03;14.30;;;;;;;1.01;59.68;97040.81;2257784;79;21526;-77
2021/01/29 13:48:24;;;;;;;24.30;14.40;;;;;;;0.97;59.99;97042.02;2257377;79;21121;-78
2021/01/29 13:51:25;;;;;;;25.07;14.70;;;;;;;0.93;60.22;97050.94;2258557;79;21248;-76
2021/01/29 13:54:26;;;;;;;23.37;12.80;;;;;;;0.85;59.89;97042.17;2257075;79;21157;-77
2021/01/29 13:57:28;;;;;;;22.10;13.17;;;;;;;1.21;65.38;97039.51;2257386;79;21117;-76